• Join FlightAware (Why Join?)
  • Login
  • US Flag 
11:03AM EDT


 

Airport Tracker/Info


-or-


 

Live Flight TrackerFlight Track Log ✈ SWA757 ✈ 19-Jul-2013 ✈ KLAS - KSLC

Flight Track Log - Related Links

Times and Time Zones

All times are in EDT time to prevent confusion due to time zone crossing. See the SWA757 flight status page for this flight to view local times or setup timezone preferences in your user account.

Time Position Orientation Groundspeed Altitude Reporting Facility
EDT Latitude Longitude Course Direction KTS MPH feet Rate Location/Type
09:44AM 36.0756 -115.1658 271° West 161 185 3,200  Level Los Angeles Center
09:45AM 36.0761 -115.2375 271° West 235 270 5,100 2,280 Climbing Los Angeles Center
09:46AM 36.0881 -115.2783 290° West 231 266 6,800 3,000 Climbing Los Angeles Center
09:47AM 36.1489 -115.2897 351° North 236 272 9,800 2,580 Climbing Los Angeles Center
09:48AM 36.1878 -115.2114 58° Northeast 269 310 12,200 2,880 Climbing Los Angeles Center
09:49AM 36.1972 -115.0969 84° East 324 373 15,800 3,360 Climbing Los Angeles Center
09:50AM 36.1975 -114.9792 90° East 340 391 19,200 2,880 Climbing Los Angeles Center
09:51AM 36.1992 -114.8483 89° East 372 428 21,800 2,940 Climbing Los Angeles Center
09:52AM 36.2664 -114.7194 57° Northeast 392 451 25,300 2,820 Climbing Los Angeles Center
09:53AM 36.3561 -114.6336 38° Northeast 404 465 27,700 2,460 Climbing Los Angeles Center
09:54AM 36.4469 -114.5458 38° Northeast 410 472 30,400 2,460 Climbing Los Angeles Center
09:55AM 36.5378 -114.4594 37° Northeast 412 474 32,800 1,200 Climbing Los Angeles Center
09:56AM 36.6333 -114.3797 34° Northeast 412 474 33,000 60 Climbing Los Angeles Center
09:58AM 36.8389 -114.2219 32° Northeast 426 490 33,000  Level Los Angeles Center
09:59AM 36.9414 -114.1436 31° Northeast 430 495 33,000  Level Los Angeles Center
10:00AM 37.0639 -114.0494 32° Northeast 431 496 33,000  Level Los Angeles Center
10:01AM 37.1642 -113.9714 32° Northeast 429 494 33,000  Level Los Angeles Center
10:02AM 37.2650 -113.8919 32° Northeast 428 493 33,000  Level Los Angeles Center
10:03AM 37.3683 -113.8142 31° Northeast 428 493 33,000  Level Los Angeles Center
10:04AM 37.4703 -113.7331 32° Northeast 430 495 33,000  Level Los Angeles Center
10:05AM 37.5722 -113.6517 32° Northeast 431 496 33,000  Level Los Angeles Center
10:06AM 37.6747 -113.5703 32° Northeast 433 498 33,000  Level Los Angeles Center
10:07AM 37.7772 -113.4867 33° Northeast 435 501 33,000  Level Los Angeles Center
10:08AM 37.9003 -113.3875 32° Northeast 437 503 33,000  Level Salt Lake Center
10:09AM 38.0031 -113.3039 33° Northeast 436 502 33,000  Level Salt Lake Center
10:10AM 38.1058 -113.2225 32° Northeast 434 499 33,000  Level Salt Lake Center
10:11AM 38.2089 -113.1383 33° Northeast 438 504 33,000  Level Salt Lake Center
10:12AM 38.3106 -113.0542 33° Northeast 436 502 33,000  Level Salt Lake Center
10:13AM 38.4161 -112.9803 29° Northeast 432 497 33,000  Level Salt Lake Center
10:14AM 38.5283 -112.9219 22° Northeast 434 499 33,000 -420 Level Salt Lake Center
10:15AM 38.6394 -112.8636 22° Northeast 432 497 32,200 -540 Descending Salt Lake Center
10:17AM 38.7717 -112.7939 22° Northeast 430 495 32,000 -120 Descending Salt Lake Center
10:18AM 38.8833 -112.7342 23° Northeast 433 498 32,000  Level Salt Lake Center
10:19AM 38.9942 -112.6731 23° Northeast 433 498 32,000  Level Salt Lake Center
10:20AM 39.1061 -112.6122 23° Northeast 436 502 32,000  Level Salt Lake Center
10:21AM 39.2192 -112.5511 23° Northeast 439 505 32,000  Level Salt Lake Center
10:22AM 39.3356 -112.4922 21° North 443 510 32,000 -1,020 Level Salt Lake Center
10:23AM 39.4769 -112.4486 13° North 436 502 29,900 -2,340 Descending Salt Lake Center
10:24AM 39.5950 -112.4106 14° North 436 502 27,200 -2,520 Descending Salt Lake Center
10:25AM 39.7075 -112.3725 15° North 419 482 24,700 -2,460 Descending Salt Lake Center
10:26AM 39.8167 -112.3372 14° North 407 468 22,200 -2,400 Descending Salt Lake Center
10:27AM 39.9211 -112.3008 15° North 390 449 19,800 -2,160 Descending Salt Lake Center
10:28AM 40.0197 -112.2678 14° North 366 421 17,800 -1,380 Descending Salt Lake Center
10:29AM 40.1164 -112.2336 15° North 359 413 17,000 -1,080 Descending Salt Lake Center
10:30AM 40.2278 -112.1975 14° North 343 395 15,700 -1,500 Descending Salt Lake Center
10:31AM 40.3186 -112.1656 15° North 338 389 14,000 -780 Descending Salt Lake Center
10:32AM 40.4094 -112.1342 15° North 338 389 14,100 -540 Climbing Salt Lake Center
10:33AM 40.4992 -112.1036 15° North 332 382 13,000 -1,020 Descending Salt Lake Center
10:34AM 40.5878 -112.0800 11° North 328 377 12,000 -1,020 Descending Salt Lake Center
10:35AM 40.6747 -112.0822 359° North 316 364 11,000 -540 Descending Salt Lake Center
10:36AM 40.7753 -112.0931 355° North 294 338 11,000 -300 Level Salt Lake Center
10:37AM 40.8419 -112.1022 354° North 245 282 10,400 -660 Descending Salt Lake Center
10:38AM 40.9064 -112.1097 355° North 226 260 9,700 -960 Descending Salt Lake Center
10:39AM 40.9736 -112.1183 354° North 199 229 8,400 -1,020 Descending Salt Lake Center
10:40AM 40.9972 -112.0767 53° Northeast 207 238 7,600 -960 Descending Salt Lake Center
10:41AM 40.9647 -112.0233 129° Southeast 194 223 6,600 -780 Descending Salt Lake Center
10:42AM 40.9036 -112.0111 171° South 190 219 6,000 -600 Descending Salt Lake Center
10:43AM 40.8547 -112.0056 175° South 164 189 5,400 -720 Descending Salt Lake Center
10:44AM 40.8194 -112.0006 174° South 135 155 4,500 -900 Descending Salt Lake Center
10:46AM 40.7884 -111.9778 159° South  Level Estimated
10:53AM 40.7884 -111.9778 159° South  Level Estimated